createdAt,value
2023-05-16T00:02:40.676Z,10.01
2023-05-16T00:07:44.868Z,10.02
2023-05-16T00:12:48.346Z,9.97
2023-05-16T00:17:52.578Z,9.92
2023-05-16T00:22:55.702Z,9.89
2023-05-16T00:27:58.624Z,9.86
2023-05-16T00:33:03.031Z,9.81
2023-05-16T00:38:06.390Z,9.74
2023-05-16T00:43:09.250Z,9.68
2023-05-16T00:48:14.753Z,9.64
2023-05-16T00:53:17.788Z,9.61
2023-05-16T00:58:20.606Z,9.61
2023-05-16T01:03:25.326Z,9.58
2023-05-16T01:08:28.307Z,9.55
2023-05-16T01:13:35.826Z,9.50
2023-05-16T01:18:44.291Z,9.45
2023-05-16T01:23:54.136Z,9.44
2023-05-16T01:28:58.526Z,9.40
2023-05-16T01:34:01.710Z,9.39
2023-05-16T01:39:12.337Z,9.39
2023-05-16T01:44:23.014Z,9.41
2023-05-16T01:49:27.963Z,9.44
2023-05-16T01:54:33.509Z,9.56
2023-05-16T01:59:39.996Z,9.60
2023-05-16T02:04:42.814Z,9.54
2023-05-16T02:09:45.665Z,9.49
2023-05-16T02:14:49.828Z,9.46
2023-05-16T02:19:53.247Z,9.41
2023-05-16T02:24:56.413Z,9.39
2023-05-16T02:30:00.649Z,9.36
2023-05-16T02:35:04.450Z,9.42
2023-05-16T02:40:09.089Z,9.47
2023-05-16T02:45:14.282Z,9.54
2023-05-16T02:50:17.130Z,9.53
2023-05-16T02:55:22.331Z,9.54
2023-05-16T03:00:27.069Z,9.49
2023-05-16T03:05:30.055Z,9.47
2023-05-16T03:10:33.132Z,9.42
2023-05-16T03:15:37.621Z,9.45
2023-05-16T03:20:40.403Z,9.40
2023-05-16T03:25:46.307Z,9.48
2023-05-16T03:30:50.572Z,9.52
2023-05-16T03:35:53.626Z,9.47
2023-05-16T03:40:56.511Z,9.57
2023-05-16T03:46:02.354Z,9.60
2023-05-16T03:51:05.403Z,9.58
2023-05-16T03:56:08.262Z,9.57
2023-05-16T04:01:12.430Z,9.57
2023-05-16T04:06:15.369Z,9.55
2023-05-16T04:11:18.224Z,9.57
2023-05-16T04:16:22.544Z,9.58
2023-05-16T04:21:25.393Z,9.59
2023-05-16T04:26:28.157Z,9.63
2023-05-16T04:31:32.479Z,9.69
2023-05-16T04:36:35.468Z,9.71
2023-05-16T04:41:38.303Z,9.74
2023-05-16T04:46:42.975Z,9.79
2023-05-16T04:51:45.935Z,9.91
2023-05-16T04:56:48.722Z,9.99
2023-05-16T05:01:52.963Z,10.17
2023-05-16T05:06:55.790Z,10.39
2023-05-16T05:11:58.647Z,10.57
2023-05-16T05:17:02.863Z,10.73
2023-05-16T05:22:06.045Z,10.76
2023-05-16T05:27:08.960Z,10.80
2023-05-16T05:32:13.284Z,10.89
2023-05-16T05:37:16.289Z,11.04
2023-05-16T05:42:19.218Z,11.17
2023-05-16T05:47:23.431Z,11.27
2023-05-16T05:52:28.292Z,11.35
2023-05-16T05:57:31.230Z,11.49
2023-05-16T06:02:36.281Z,11.57
2023-05-16T06:07:39.350Z,11.70
2023-05-16T06:12:42.303Z,11.96
2023-05-16T06:17:46.599Z,12.03
2023-05-16T06:22:49.495Z,12.32
2023-05-16T06:27:52.358Z,12.65
2023-05-16T06:32:56.711Z,12.44
2023-05-16T06:37:59.549Z,13.45
2023-05-16T06:43:02.322Z,14.78
2023-05-16T06:48:08.063Z,16.02
2023-05-16T06:53:12.383Z,16.49
2023-05-16T06:58:15.685Z,15.21
2023-05-16T07:03:19.923Z,14.15
2023-05-16T07:08:22.818Z,14.73
2023-05-16T07:13:25.701Z,15.49
2023-05-16T07:18:30.072Z,15.77
2023-05-16T07:23:32.960Z,14.94
2023-05-16T07:28:36.049Z,15.35
2023-05-16T07:33:40.784Z,15.56
2023-05-16T07:38:43.893Z,15.83
2023-05-16T07:43:46.715Z,15.12
2023-05-16T07:48:51.569Z,14.76
2023-05-16T07:53:54.633Z,14.77
2023-05-16T07:58:57.769Z,16.42
2023-05-16T08:04:02.421Z,16.88
2023-05-16T08:09:05.994Z,17.19
2023-05-16T08:14:09.260Z,17.33
2023-05-16T08:19:13.585Z,17.59
2023-05-16T08:24:18.258Z,18.43
2023-05-16T08:29:21.952Z,17.85
2023-05-16T08:34:26.488Z,17.16
2023-05-16T08:39:30.701Z,15.74
2023-05-16T08:44:33.820Z,16.01
2023-05-16T08:49:41.365Z,17.57
2023-05-16T08:54:45.787Z,16.79
2023-05-16T08:59:51.736Z,16.77
2023-05-16T09:04:56.192Z,16.58
2023-05-16T09:09:59.151Z,17.08
2023-05-16T09:15:03.223Z,17.62
2023-05-16T09:20:15.839Z,18.07
2023-05-16T09:25:29.723Z,18.68
2023-05-16T09:30:37.183Z,18.55
2023-05-16T09:35:45.504Z,18.93
2023-05-16T09:40:48.732Z,18.84
2023-05-16T09:45:51.981Z,18.83
2023-05-16T09:50:56.916Z,18.57
2023-05-16T09:56:04.019Z,18.42
2023-05-16T10:01:07.499Z,18.33
2023-05-16T10:06:11.885Z,18.15
2023-05-16T10:11:15.338Z,18.33
2023-05-16T10:16:19.251Z,18.09
2023-05-16T10:21:23.807Z,17.33
2023-05-16T10:26:27.195Z,16.97
2023-05-16T10:31:30.286Z,17.08
2023-05-16T10:36:35.723Z,17.74
2023-05-16T10:41:38.925Z,17.74
2023-05-16T10:46:42.090Z,17.56
2023-05-16T10:51:46.470Z,17.58
2023-05-16T10:56:57.176Z,17.58
2023-05-16T11:02:00.146Z,17.77
2023-05-16T11:07:04.756Z,17.86
2023-05-16T11:12:10.950Z,18.07
2023-05-16T11:17:15.263Z,18.59
2023-05-16T11:22:27.426Z,18.96
2023-05-16T11:27:31.889Z,18.46
2023-05-16T11:32:35.996Z,18.39
2023-05-16T11:37:40.353Z,18.06
2023-05-16T11:42:44.296Z,17.64
2023-05-16T11:47:48.665Z,17.19
2023-05-16T11:52:54.660Z,17.45
2023-05-16T11:57:59.334Z,18.09
2023-05-16T12:03:05.472Z,18.02
2023-05-16T12:08:11.760Z,18.03
2023-05-16T12:13:14.724Z,17.90
2023-05-16T12:18:18.019Z,18.33
2023-05-16T12:23:22.392Z,18.10
2023-05-16T12:28:25.292Z,17.77
2023-05-16T12:33:29.028Z,17.71
2023-05-16T12:38:33.265Z,17.93
2023-05-16T12:43:36.299Z,18.09
2023-05-16T12:48:40.034Z,18.28
2023-05-16T12:53:54.387Z,18.98
2023-05-16T12:59:04.815Z,19.19
2023-05-16T13:04:08.353Z,19.43
2023-05-16T13:09:13.129Z,19.62
2023-05-16T13:14:16.085Z,19.58
2023-05-16T13:19:19.229Z,19.50
2023-05-16T13:24:23.555Z,19.47
2023-05-16T13:29:26.725Z,19.64
2023-05-16T13:34:29.557Z,19.28
2023-05-16T13:39:33.791Z,19.03
2023-05-16T13:44:36.824Z,18.69
2023-05-16T13:49:39.735Z,19.03
2023-05-16T13:54:43.991Z,18.93
2023-05-16T14:00:11.487Z,18.86
2023-05-16T14:05:14.393Z,18.86
2023-05-16T14:10:18.664Z,18.88
2023-05-16T14:15:21.572Z,19.03
2023-05-16T14:20:24.502Z,19.08
2023-05-16T14:25:29.127Z,19.60
2023-05-16T14:30:32.730Z,19.14
2023-05-16T14:35:38.256Z,18.89
2023-05-16T14:40:42.531Z,18.02
2023-05-16T14:45:45.651Z,17.49
2023-05-16T14:50:49.099Z,17.19
2023-05-16T14:55:53.388Z,17.05
2023-05-16T15:00:56.572Z,17.16
2023-05-16T15:05:59.612Z,17.02
2023-05-16T15:11:03.845Z,17.37
2023-05-16T15:16:07.846Z,17.52
2023-05-16T15:21:10.904Z,17.59
2023-05-16T15:26:15.200Z,17.69
2023-05-16T15:31:18.138Z,17.51
2023-05-16T15:36:20.945Z,18.02
2023-05-16T15:41:43.639Z,18.02
2023-05-16T15:46:48.054Z,17.77
2023-05-16T15:51:52.056Z,17.53
2023-05-16T15:56:56.369Z,17.40
2023-05-16T16:01:59.204Z,17.55
2023-05-16T16:07:02.067Z,17.25
2023-05-16T16:12:06.961Z,16.81
2023-05-16T16:17:09.859Z,16.91
2023-05-16T16:22:12.709Z,17.00
2023-05-16T16:27:17.496Z,17.03
2023-05-16T16:32:20.327Z,16.91
2023-05-16T16:37:23.226Z,16.71
2023-05-16T16:42:30.401Z,16.51
2023-05-16T16:47:33.569Z,16.42
2023-05-16T16:52:36.566Z,16.48
2023-05-16T16:57:40.772Z,16.18
2023-05-16T17:02:43.847Z,16.12
2023-05-16T17:07:46.806Z,16.24
2023-05-16T17:12:51.030Z,16.05
2023-05-16T17:17:54.077Z,15.98
2023-05-16T17:22:57.038Z,15.95
2023-05-16T17:28:01.328Z,15.77
2023-05-16T17:33:04.320Z,15.69
2023-05-16T17:38:07.441Z,15.71
2023-05-16T17:43:11.700Z,15.57
2023-05-16T17:48:14.760Z,15.55
2023-05-16T17:53:17.711Z,15.60
2023-05-16T17:58:21.980Z,15.44
2023-05-16T18:03:24.907Z,15.40
2023-05-16T18:08:28.262Z,15.24
2023-05-16T18:13:32.984Z,15.13
2023-05-16T18:18:37.715Z,15.10
2023-05-16T18:23:41.113Z,15.00
2023-05-16T18:28:45.373Z,14.84
2023-05-16T18:33:48.449Z,14.73
2023-05-16T18:38:51.318Z,14.64
2023-05-16T18:43:55.751Z,14.46
2023-05-16T18:48:58.617Z,14.35
2023-05-16T18:54:01.766Z,14.22
2023-05-16T18:59:06.689Z,14.11
2023-05-16T19:04:09.800Z,13.99
2023-05-16T19:09:12.787Z,13.86
2023-05-16T19:14:17.101Z,13.78
2023-05-16T19:19:20.012Z,13.72
2023-05-16T19:24:22.888Z,13.60
2023-05-16T19:29:27.086Z,13.50
2023-05-16T19:34:30.218Z,13.42
2023-05-16T19:39:33.090Z,13.32
2023-05-16T19:44:37.344Z,13.29
2023-05-16T19:49:40.437Z,13.23
2023-05-16T19:54:43.708Z,13.15
2023-05-16T19:59:47.967Z,13.07
2023-05-16T20:04:50.872Z,13.06
2023-05-16T20:09:53.793Z,13.02
2023-05-16T20:14:58.104Z,12.94
2023-05-16T20:20:01.098Z,12.89
2023-05-16T20:25:04.056Z,12.78
2023-05-16T20:30:09.804Z,12.76
2023-05-16T20:35:13.338Z,12.68
2023-05-16T20:40:16.265Z,12.62
2023-05-16T20:45:20.672Z,12.57
2023-05-16T20:50:23.540Z,12.54
2023-05-16T20:55:26.634Z,12.47
2023-05-16T21:00:31.415Z,12.43
2023-05-16T21:05:35.921Z,12.36
2023-05-16T21:10:39.017Z,12.31
2023-05-16T21:15:43.182Z,12.25
2023-05-16T21:20:46.453Z,12.23
2023-05-16T21:25:49.291Z,12.19
2023-05-16T21:30:54.268Z,12.12
2023-05-16T21:35:57.625Z,12.09
2023-05-16T21:41:00.520Z,12.05
2023-05-16T21:46:04.732Z,12.02
2023-05-16T21:51:07.670Z,11.97
2023-05-16T21:56:10.504Z,11.93
2023-05-16T22:01:16.553Z,11.97
2023-05-16T22:06:19.454Z,11.93
2023-05-16T22:11:22.840Z,11.88
2023-05-16T22:16:27.105Z,11.86
2023-05-16T22:21:30.136Z,11.82
2023-05-16T22:26:32.933Z,11.77
2023-05-16T22:31:37.133Z,11.75
2023-05-16T22:36:40.229Z,11.75
2023-05-16T22:41:43.233Z,11.69
2023-05-16T22:46:47.410Z,11.66
2023-05-16T22:51:50.391Z,11.63
2023-05-16T22:56:54.356Z,11.60
2023-05-16T23:01:58.551Z,11.61
2023-05-16T23:07:01.356Z,11.67
2023-05-16T23:12:04.284Z,11.76
2023-05-16T23:17:08.532Z,11.81
2023-05-16T23:22:11.411Z,11.78
2023-05-16T23:27:14.304Z,11.71
2023-05-16T23:32:18.501Z,11.75
2023-05-16T23:37:21.369Z,11.79
2023-05-16T23:42:24.228Z,11.83
2023-05-16T23:47:28.451Z,11.94
2023-05-16T23:52:31.346Z,11.98
2023-05-16T23:57:34.264Z,12.05
